sensor_id;sensor_type;location;lat;lon;timestamp;temperature;humidity
2929;DHT22;1474;51.460;7.150;2022-12-16T00:00:20;-4.50;99.90
2929;DHT22;1474;51.460;7.150;2022-12-16T00:02:45;-4.50;99.90
2929;DHT22;1474;51.460;7.150;2022-12-16T00:05:11;-4.50;99.90
2929;DHT22;1474;51.460;7.150;2022-12-16T00:07:37;-4.50;99.90
2929;DHT22;1474;51.460;7.150;2022-12-16T00:10:03;-4.60;99.90
2929;DHT22;1474;51.460;7.150;2022-12-16T00:12:28;-4.60;99.90
2929;DHT22;1474;51.460;7.150;2022-12-16T00:14:54;-4.60;99.90
2929;DHT22;1474;51.460;7.150;2022-12-16T00:17:20;-4.60;99.90
2929;DHT22;1474;51.460;7.150;2022-12-16T00:19:45;-4.60;99.90
2929;DHT22;1474;51.460;7.150;2022-12-16T00:22:11;-4.60;99.90
2929;DHT22;1474;51.460;7.150;2022-12-16T00:24:37;-4.70;99.90
2929;DHT22;1474;51.460;7.150;2022-12-16T00:27:02;-4.70;99.90
2929;DHT22;1474;51.460;7.150;2022-12-16T00:29:28;-4.70;99.90
2929;DHT22;1474;51.460;7.150;2022-12-16T00:31:53;-4.70;99.90
2929;DHT22;1474;51.460;7.150;2022-12-16T00:34:19;-4.70;99.90
2929;DHT22;1474;51.460;7.150;2022-12-16T00:36:45;-4.70;99.90
2929;DHT22;1474;51.460;7.150;2022-12-16T00:39:10;-4.70;99.90
2929;DHT22;1474;51.460;7.150;2022-12-16T00:41:36;-4.70;99.90
2929;DHT22;1474;51.460;7.150;2022-12-16T00:44:02;-4.80;99.90
2929;DHT22;1474;51.460;7.150;2022-12-16T00:46:28;-4.70;99.90
2929;DHT22;1474;51.460;7.150;2022-12-16T00:48:53;-4.70;99.90
2929;DHT22;1474;51.460;7.150;2022-12-16T00:51:19;-4.70;99.90
2929;DHT22;1474;51.460;7.150;2022-12-16T00:53:45;-4.70;99.90
2929;DHT22;1474;51.460;7.150;2022-12-16T00:56:12;-4.70;99.90
2929;DHT22;1474;51.460;7.150;2022-12-16T00:58:43;-4.80;99.90
2929;DHT22;1474;51.460;7.150;2022-12-16T01:01:09;-4.80;99.90
2929;DHT22;1474;51.460;7.150;2022-12-16T01:03:35;-4.80;99.90
2929;DHT22;1474;51.460;7.150;2022-12-16T01:06:10;-4.70;99.90
2929;DHT22;1474;51.460;7.150;2022-12-16T01:08:36;-4.80;99.90
2929;DHT22;1474;51.460;7.150;2022-12-16T01:11:01;-4.70;99.90
2929;DHT22;1474;51.460;7.150;2022-12-16T01:13:27;-4.80;99.90
2929;DHT22;1474;51.460;7.150;2022-12-16T01:15:53;-4.80;99.90
2929;DHT22;1474;51.460;7.150;2022-12-16T01:18:19;-4.80;99.90
2929;DHT22;1474;51.460;7.150;2022-12-16T01:20:45;-4.90;99.90
2929;DHT22;1474;51.460;7.150;2022-12-16T01:23:11;-4.90;99.90
2929;DHT22;1474;51.460;7.150;2022-12-16T01:25:36;-4.90;99.90
2929;DHT22;1474;51.460;7.150;2022-12-16T01:28:02;-4.90;99.90
2929;DHT22;1474;51.460;7.150;2022-12-16T01:30:28;-4.90;99.90
2929;DHT22;1474;51.460;7.150;2022-12-16T01:32:53;-4.90;99.90
2929;DHT22;1474;51.460;7.150;2022-12-16T01:35:19;-4.90;99.90
2929;DHT22;1474;51.460;7.150;2022-12-16T01:37:45;-4.90;99.90
2929;DHT22;1474;51.460;7.150;2022-12-16T01:40:22;-4.90;99.90
2929;DHT22;1474;51.460;7.150;2022-12-16T01:42:48;-5.00;99.90
2929;DHT22;1474;51.460;7.150;2022-12-16T01:45:34;-4.90;99.90
2929;DHT22;1474;51.460;7.150;2022-12-16T01:48:18;-4.90;99.90
2929;DHT22;1474;51.460;7.150;2022-12-16T01:50:45;-4.90;99.90
2929;DHT22;1474;51.460;7.150;2022-12-16T01:53:11;-5.00;99.90
2929;DHT22;1474;51.460;7.150;2022-12-16T01:55:42;-5.00;99.90
2929;DHT22;1474;51.460;7.150;2022-12-16T01:58:22;-5.00;99.90
2929;DHT22;1474;51.460;7.150;2022-12-16T02:00:49;-5.00;99.90
2929;DHT22;1474;51.460;7.150;2022-12-16T02:03:15;-5.00;99.90
2929;DHT22;1474;51.460;7.150;2022-12-16T02:05:41;-5.00;99.90
2929;DHT22;1474;51.460;7.150;2022-12-16T02:08:11;-5.00;99.90
2929;DHT22;1474;51.460;7.150;2022-12-16T02:13:58;-5.00;99.90
2929;DHT22;1474;51.460;7.150;2022-12-16T02:36:16;-5.10;99.90
2929;DHT22;1474;51.460;7.150;2022-12-16T02:41:48;-5.20;99.90
2929;DHT22;1474;51.460;7.150;2022-12-16T02:44:16;-5.20;99.90
2929;DHT22;1474;51.460;7.150;2022-12-16T02:46:52;-5.20;99.90
2929;DHT22;1474;51.460;7.150;2022-12-16T02:51:43;-5.20;99.90
2929;DHT22;1474;51.460;7.150;2022-12-16T02:54:10;-5.20;99.90
2929;DHT22;1474;51.460;7.150;2022-12-16T03:00:03;-5.30;99.90
2929;DHT22;1474;51.460;7.150;2022-12-16T03:02:58;-5.30;99.90
2929;DHT22;1474;51.460;7.150;2022-12-16T03:05:38;-5.40;99.90
2929;DHT22;1474;51.460;7.150;2022-12-16T03:08:10;-5.40;99.90
2929;DHT22;1474;51.460;7.150;2022-12-16T03:10:41;-5.40;99.90
2929;DHT22;1474;51.460;7.150;2022-12-16T03:13:10;-5.40;99.90
2929;DHT22;1474;51.460;7.150;2022-12-16T03:15:38;-5.40;99.90
2929;DHT22;1474;51.460;7.150;2022-12-16T03:18:07;-5.40;99.90
2929;DHT22;1474;51.460;7.150;2022-12-16T03:20:45;-5.50;99.90
2929;DHT22;1474;51.460;7.150;2022-12-16T03:23:18;-5.50;99.90
2929;DHT22;1474;51.460;7.150;2022-12-16T03:25:46;-5.50;99.90
2929;DHT22;1474;51.460;7.150;2022-12-16T03:28:21;-5.50;99.90
2929;DHT22;1474;51.460;7.150;2022-12-16T03:30:53;-5.50;99.90
2929;DHT22;1474;51.460;7.150;2022-12-16T03:33:33;-5.50;99.90
2929;DHT22;1474;51.460;7.150;2022-12-16T03:36:08;-5.50;99.90
2929;DHT22;1474;51.460;7.150;2022-12-16T03:38:35;-5.60;99.90
2929;DHT22;1474;51.460;7.150;2022-12-16T03:41:02;-5.60;99.90
2929;DHT22;1474;51.460;7.150;2022-12-16T03:43:28;-5.50;99.90
2929;DHT22;1474;51.460;7.150;2022-12-16T03:45:59;-5.60;99.90
2929;DHT22;1474;51.460;7.150;2022-12-16T03:48:25;-5.60;99.90
2929;DHT22;1474;51.460;7.150;2022-12-16T03:50:50;-5.60;99.90
2929;DHT22;1474;51.460;7.150;2022-12-16T03:53:16;-5.60;99.90
2929;DHT22;1474;51.460;7.150;2022-12-16T03:55:42;-5.60;99.90
2929;DHT22;1474;51.460;7.150;2022-12-16T03:58:08;-5.60;99.90
2929;DHT22;1474;51.460;7.150;2022-12-16T04:00:35;-5.60;99.90
2929;DHT22;1474;51.460;7.150;2022-12-16T04:03:00;-5.60;99.90
2929;DHT22;1474;51.460;7.150;2022-12-16T04:05:26;-5.60;99.90
2929;DHT22;1474;51.460;7.150;2022-12-16T04:07:52;-5.60;99.90
2929;DHT22;1474;51.460;7.150;2022-12-16T04:10:17;-5.60;99.90
2929;DHT22;1474;51.460;7.150;2022-12-16T04:13:03;-5.60;99.90
2929;DHT22;1474;51.460;7.150;2022-12-16T04:15:47;-5.60;99.90
2929;DHT22;1474;51.460;7.150;2022-12-16T04:18:32;-5.60;99.90
2929;DHT22;1474;51.460;7.150;2022-12-16T04:21:16;-5.60;99.90
2929;DHT22;1474;51.460;7.150;2022-12-16T04:24:01;-5.60;99.90
2929;DHT22;1474;51.460;7.150;2022-12-16T04:26:45;-5.60;99.90
2929;DHT22;1474;51.460;7.150;2022-12-16T04:29:30;-5.60;99.90
2929;DHT22;1474;51.460;7.150;2022-12-16T04:31:56;-5.60;99.90
2929;DHT22;1474;51.460;7.150;2022-12-16T04:34:22;-5.60;99.90
2929;DHT22;1474;51.460;7.150;2022-12-16T04:36:52;-5.70;99.90
2929;DHT22;1474;51.460;7.150;2022-12-16T04:39:37;-5.70;99.90
2929;DHT22;1474;51.460;7.150;2022-12-16T04:42:21;-5.70;99.90
2929;DHT22;1474;51.460;7.150;2022-12-16T04:45:06;-5.70;99.90
2929;DHT22;1474;51.460;7.150;2022-12-16T04:47:52;-5.70;99.90
2929;DHT22;1474;51.460;7.150;2022-12-16T04:50:37;-5.70;99.90
2929;DHT22;1474;51.460;7.150;2022-12-16T04:53:23;-5.70;99.90
2929;DHT22;1474;51.460;7.150;2022-12-16T04:56:07;-5.70;99.90
2929;DHT22;1474;51.460;7.150;2022-12-16T04:58:51;-5.70;99.90
2929;DHT22;1474;51.460;7.150;2022-12-16T05:01:35;-5.70;99.90
2929;DHT22;1474;51.460;7.150;2022-12-16T05:04:21;-5.70;99.90
2929;DHT22;1474;51.460;7.150;2022-12-16T05:07:06;-5.60;99.90
2929;DHT22;1474;51.460;7.150;2022-12-16T05:09:50;-5.70;99.90
2929;DHT22;1474;51.460;7.150;2022-12-16T05:12:34;-5.70;99.90
2929;DHT22;1474;51.460;7.150;2022-12-16T05:15:19;-5.70;99.90
2929;DHT22;1474;51.460;7.150;2022-12-16T05:18:11;-5.70;99.90
2929;DHT22;1474;51.460;7.150;2022-12-16T05:21:00;-5.70;99.90
2929;DHT22;1474;51.460;7.150;2022-12-16T05:23:44;-5.70;99.90
2929;DHT22;1474;51.460;7.150;2022-12-16T05:26:29;-5.70;99.90
2929;DHT22;1474;51.460;7.150;2022-12-16T05:29:13;-5.70;99.90
2929;DHT22;1474;51.460;7.150;2022-12-16T05:31:58;-5.80;99.90
2929;DHT22;1474;51.460;7.150;2022-12-16T05:34:42;-5.80;99.90
2929;DHT22;1474;51.460;7.150;2022-12-16T05:37:27;-5.80;99.90
2929;DHT22;1474;51.460;7.150;2022-12-16T05:40:11;-5.80;99.90
2929;DHT22;1474;51.460;7.150;2022-12-16T05:42:56;-5.70;99.90
2929;DHT22;1474;51.460;7.150;2022-12-16T05:45:41;-5.70;99.90
2929;DHT22;1474;51.460;7.150;2022-12-16T05:48:25;-5.70;99.90
2929;DHT22;1474;51.460;7.150;2022-12-16T05:51:10;-5.70;99.90
2929;DHT22;1474;51.460;7.150;2022-12-16T05:54:00;-5.70;99.90
2929;DHT22;1474;51.460;7.150;2022-12-16T05:56:44;-5.70;99.90
2929;DHT22;1474;51.460;7.150;2022-12-16T05:59:28;-5.70;99.90
2929;DHT22;1474;51.460;7.150;2022-12-16T06:02:13;-5.70;99.90
2929;DHT22;1474;51.460;7.150;2022-12-16T06:04:57;-5.70;99.90
2929;DHT22;1474;51.460;7.150;2022-12-16T06:07:41;-5.70;99.90
2929;DHT22;1474;51.460;7.150;2022-12-16T06:10:26;-5.70;99.90
2929;DHT22;1474;51.460;7.150;2022-12-16T06:13:10;-5.70;99.90
2929;DHT22;1474;51.460;7.150;2022-12-16T06:15:55;-5.70;99.90
2929;DHT22;1474;51.460;7.150;2022-12-16T06:18:39;-5.70;99.90
2929;DHT22;1474;51.460;7.150;2022-12-16T06:21:23;-5.70;99.90
2929;DHT22;1474;51.460;7.150;2022-12-16T06:24:07;-5.70;99.90
2929;DHT22;1474;51.460;7.150;2022-12-16T06:26:52;-5.70;99.90
2929;DHT22;1474;51.460;7.150;2022-12-16T06:29:36;-5.80;99.90
2929;DHT22;1474;51.460;7.150;2022-12-16T06:32:20;-5.80;99.90
2929;DHT22;1474;51.460;7.150;2022-12-16T06:35:05;-5.70;99.90
2929;DHT22;1474;51.460;7.150;2022-12-16T06:37:49;-5.80;99.90
2929;DHT22;1474;51.460;7.150;2022-12-16T06:40:34;-5.80;99.90
2929;DHT22;1474;51.460;7.150;2022-12-16T06:43:18;-5.70;99.90
2929;DHT22;1474;51.460;7.150;2022-12-16T06:46:02;-5.80;99.90
2929;DHT22;1474;51.460;7.150;2022-12-16T06:48:46;-5.70;99.90
2929;DHT22;1474;51.460;7.150;2022-12-16T06:51:31;-5.80;99.90
2929;DHT22;1474;51.460;7.150;2022-12-16T06:54:15;-5.80;99.90
2929;DHT22;1474;51.460;7.150;2022-12-16T06:56:59;-5.80;99.90
2929;DHT22;1474;51.460;7.150;2022-12-16T06:59:44;-5.80;99.90
2929;DHT22;1474;51.460;7.150;2022-12-16T07:02:28;-5.80;99.90
2929;DHT22;1474;51.460;7.150;2022-12-16T07:05:13;-5.80;99.90
2929;DHT22;1474;51.460;7.150;2022-12-16T07:07:57;-5.80;99.90
2929;DHT22;1474;51.460;7.150;2022-12-16T07:10:41;-5.80;99.90
2929;DHT22;1474;51.460;7.150;2022-12-16T07:13:25;-5.90;99.90
2929;DHT22;1474;51.460;7.150;2022-12-16T07:16:09;-5.90;99.90
2929;DHT22;1474;51.460;7.150;2022-12-16T07:18:54;-5.90;99.90
2929;DHT22;1474;51.460;7.150;2022-12-16T07:21:39;-5.90;99.90
2929;DHT22;1474;51.460;7.150;2022-12-16T07:24:23;-5.90;99.90
2929;DHT22;1474;51.460;7.150;2022-12-16T07:27:07;-5.90;99.90
2929;DHT22;1474;51.460;7.150;2022-12-16T07:29:51;-5.90;99.90
2929;DHT22;1474;51.460;7.150;2022-12-16T07:32:36;-5.80;99.90
2929;DHT22;1474;51.460;7.150;2022-12-16T07:35:20;-5.80;99.90
2929;DHT22;1474;51.460;7.150;2022-12-16T07:38:05;-5.80;99.90
2929;DHT22;1474;51.460;7.150;2022-12-16T07:40:49;-5.80;99.90
2929;DHT22;1474;51.460;7.150;2022-12-16T07:43:33;-5.80;99.90
2929;DHT22;1474;51.460;7.150;2022-12-16T07:46:18;-5.80;99.90
2929;DHT22;1474;51.460;7.150;2022-12-16T07:49:02;-5.80;99.90
2929;DHT22;1474;51.460;7.150;2022-12-16T07:51:46;-5.80;99.90
2929;DHT22;1474;51.460;7.150;2022-12-16T07:54:31;-5.80;99.90
2929;DHT22;1474;51.460;7.150;2022-12-16T07:57:15;-5.80;99.90
2929;DHT22;1474;51.460;7.150;2022-12-16T07:59:59;-5.80;99.90
2929;DHT22;1474;51.460;7.150;2022-12-16T08:02:44;-5.80;99.90
2929;DHT22;1474;51.460;7.150;2022-12-16T08:05:28;-5.80;99.90
2929;DHT22;1474;51.460;7.150;2022-12-16T08:08:12;-5.70;99.90
2929;DHT22;1474;51.460;7.150;2022-12-16T08:10:57;-5.70;99.90
2929;DHT22;1474;51.460;7.150;2022-12-16T08:13:41;-5.70;99.90
2929;DHT22;1474;51.460;7.150;2022-12-16T08:16:25;-5.70;99.90
2929;DHT22;1474;51.460;7.150;2022-12-16T08:19:09;-5.60;99.90
2929;DHT22;1474;51.460;7.150;2022-12-16T08:21:54;-5.60;99.90
2929;DHT22;1474;51.460;7.150;2022-12-16T08:24:38;-5.60;99.90
2929;DHT22;1474;51.460;7.150;2022-12-16T08:27:22;-5.60;99.90
2929;DHT22;1474;51.460;7.150;2022-12-16T08:30:07;-5.60;99.90
2929;DHT22;1474;51.460;7.150;2022-12-16T08:32:51;-5.50;99.90
2929;DHT22;1474;51.460;7.150;2022-12-16T08:35:58;-5.40;99.90
2929;DHT22;1474;51.460;7.150;2022-12-16T08:38:43;-5.40;99.90
2929;DHT22;1474;51.460;7.150;2022-12-16T08:41:27;-5.30;99.90
2929;DHT22;1474;51.460;7.150;2022-12-16T08:44:11;-5.20;99.90
2929;DHT22;1474;51.460;7.150;2022-12-16T08:46:56;-5.10;99.90
2929;DHT22;1474;51.460;7.150;2022-12-16T08:49:40;-5.00;99.90
2929;DHT22;1474;51.460;7.150;2022-12-16T08:52:24;-4.80;99.90
2929;DHT22;1474;51.460;7.150;2022-12-16T08:55:16;-4.60;99.90
2929;DHT22;1474;51.460;7.150;2022-12-16T08:58:00;-4.40;99.90
2929;DHT22;1474;51.460;7.150;2022-12-16T09:00:45;-4.20;99.90
2929;DHT22;1474;51.460;7.150;2022-12-16T09:03:29;-4.00;99.90
2929;DHT22;1474;51.460;7.150;2022-12-16T09:06:13;-3.80;99.90
2929;DHT22;1474;51.460;7.150;2022-12-16T09:08:57;-3.60;99.90
2929;DHT22;1474;51.460;7.150;2022-12-16T09:11:42;-3.40;99.90
2929;DHT22;1474;51.460;7.150;2022-12-16T09:14:26;-3.20;99.90
2929;DHT22;1474;51.460;7.150;2022-12-16T09:17:11;-2.90;99.90
2929;DHT22;1474;51.460;7.150;2022-12-16T09:19:55;-2.70;99.90
2929;DHT22;1474;51.460;7.150;2022-12-16T09:22:39;-2.60;99.90
2929;DHT22;1474;51.460;7.150;2022-12-16T09:25:23;-2.50;99.90
2929;DHT22;1474;51.460;7.150;2022-12-16T09:28:08;-2.40;99.90
2929;DHT22;1474;51.460;7.150;2022-12-16T09:30:52;-2.40;99.90
2929;DHT22;1474;51.460;7.150;2022-12-16T09:33:36;-2.30;99.90
2929;DHT22;1474;51.460;7.150;2022-12-16T09:36:31;-2.20;99.90
2929;DHT22;1474;51.460;7.150;2022-12-16T09:39:16;-2.10;99.90
2929;DHT22;1474;51.460;7.150;2022-12-16T09:45:15;-1.90;99.90
2929;DHT22;1474;51.460;7.150;2022-12-16T09:48:05;-1.80;99.90
2929;DHT22;1474;51.460;7.150;2022-12-16T09:51:07;-1.70;99.90
2929;DHT22;1474;51.460;7.150;2022-12-16T09:53:53;-1.70;99.90
2929;DHT22;1474;51.460;7.150;2022-12-16T09:56:38;-1.60;99.90
2929;DHT22;1474;51.460;7.150;2022-12-16T09:59:35;-1.60;99.90
2929;DHT22;1474;51.460;7.150;2022-12-16T10:02:21;-1.50;99.90
2929;DHT22;1474;51.460;7.150;2022-12-16T10:05:12;-1.30;99.90
2929;DHT22;1474;51.460;7.150;2022-12-16T10:11:21;-1.00;99.90
2929;DHT22;1474;51.460;7.150;2022-12-16T10:14:18;-0.70;99.90
2929;DHT22;1474;51.460;7.150;2022-12-16T10:17:19;-0.60;99.90
2929;DHT22;1474;51.460;7.150;2022-12-16T10:20:26;-0.30;99.90
2929;DHT22;1474;51.460;7.150;2022-12-16T10:23:24;-0.10;99.90
2929;DHT22;1474;51.460;7.150;2022-12-16T10:26:27;0.10;99.90
2929;DHT22;1474;51.460;7.150;2022-12-16T10:29:19;0.20;99.90
2929;DHT22;1474;51.460;7.150;2022-12-16T10:32:24;0.30;99.90
2929;DHT22;1474;51.460;7.150;2022-12-16T10:35:35;0.60;99.90
2929;DHT22;1474;51.460;7.150;2022-12-16T10:38:34;0.80;99.90
2929;DHT22;1474;51.460;7.150;2022-12-16T10:41:21;1.00;99.90
2929;DHT22;1474;51.460;7.150;2022-12-16T10:44:22;1.10;99.90
2929;DHT22;1474;51.460;7.150;2022-12-16T10:47:08;1.20;99.90
2929;DHT22;1474;51.460;7.150;2022-12-16T10:49:53;1.40;99.90
2929;DHT22;1474;51.460;7.150;2022-12-16T10:52:59;1.60;99.90
2929;DHT22;1474;51.460;7.150;2022-12-16T10:58:54;1.90;99.90
2929;DHT22;1474;51.460;7.150;2022-12-16T11:01:39;2.00;99.90
2929;DHT22;1474;51.460;7.150;2022-12-16T11:04:35;2.00;99.90
2929;DHT22;1474;51.460;7.150;2022-12-16T11:10:26;2.20;99.90
2929;DHT22;1474;51.460;7.150;2022-12-16T11:13:17;2.40;99.90
2929;DHT22;1474;51.460;7.150;2022-12-16T11:16:07;2.50;99.90
2929;DHT22;1474;51.460;7.150;2022-12-16T11:18:52;2.50;99.90
2929;DHT22;1474;51.460;7.150;2022-12-16T11:21:36;2.60;99.90
2929;DHT22;1474;51.460;7.150;2022-12-16T11:24:20;2.60;99.90
2929;DHT22;1474;51.460;7.150;2022-12-16T11:27:24;2.70;99.90
2929;DHT22;1474;51.460;7.150;2022-12-16T11:30:21;2.80;99.90
2929;DHT22;1474;51.460;7.150;2022-12-16T11:33:26;2.90;99.90
2929;DHT22;1474;51.460;7.150;2022-12-16T11:36:18;3.00;99.90
2929;DHT22;1474;51.460;7.150;2022-12-16T11:39:03;2.70;99.90
2929;DHT22;1474;51.460;7.150;2022-12-16T11:41:51;2.80;99.90
2929;DHT22;1474;51.460;7.150;2022-12-16T11:44:40;2.80;99.90
2929;DHT22;1474;51.460;7.150;2022-12-16T11:47:38;2.90;99.90
2929;DHT22;1474;51.460;7.150;2022-12-16T11:50:26;2.90;99.90
2929;DHT22;1474;51.460;7.150;2022-12-16T11:56:16;2.90;99.90
2929;DHT22;1474;51.460;7.150;2022-12-16T11:59:19;2.90;99.90
2929;DHT22;1474;51.460;7.150;2022-12-16T12:05:27;3.10;99.90
2929;DHT22;1474;51.460;7.150;2022-12-16T12:08:31;3.20;99.90
2929;DHT22;1474;51.460;7.150;2022-12-16T12:11:26;3.30;99.90
2929;DHT22;1474;51.460;7.150;2022-12-16T12:26:35;3.40;99.90
2929;DHT22;1474;51.460;7.150;2022-12-16T12:32:43;3.50;99.90
2929;DHT22;1474;51.460;7.150;2022-12-16T12:35:52;3.50;99.90
2929;DHT22;1474;51.460;7.150;2022-12-16T12:45:28;3.60;99.90
2929;DHT22;1474;51.460;7.150;2022-12-16T12:54:51;3.50;99.90
2929;DHT22;1474;51.460;7.150;2022-12-16T12:57:38;3.40;99.90
2929;DHT22;1474;51.460;7.150;2022-12-16T13:00:26;3.40;99.90
2929;DHT22;1474;51.460;7.150;2022-12-16T13:06:22;3.40;99.90
2929;DHT22;1474;51.460;7.150;2022-12-16T13:09:29;3.30;99.90
2929;DHT22;1474;51.460;7.150;2022-12-16T13:15:06;3.10;99.90
2929;DHT22;1474;51.460;7.150;2022-12-16T13:20:52;2.80;99.90
2929;DHT22;1474;51.460;7.150;2022-12-16T13:23:39;2.70;99.90
2929;DHT22;1474;51.460;7.150;2022-12-16T13:26:26;2.60;99.90
2929;DHT22;1474;51.460;7.150;2022-12-16T13:29:23;2.60;99.90
2929;DHT22;1474;51.460;7.150;2022-12-16T13:35:18;2.50;99.90
2929;DHT22;1474;51.460;7.150;2022-12-16T13:40:53;2.40;99.90
2929;DHT22;1474;51.460;7.150;2022-12-16T13:43:53;2.40;99.90
2929;DHT22;1474;51.460;7.150;2022-12-16T13:46:46;2.30;99.90
2929;DHT22;1474;51.460;7.150;2022-12-16T13:55:56;2.30;99.90
2929;DHT22;1474;51.460;7.150;2022-12-16T13:58:49;2.30;99.90
2929;DHT22;1474;51.460;7.150;2022-12-16T14:04:34;2.20;99.90
2929;DHT22;1474;51.460;7.150;2022-12-16T14:07:21;2.20;99.90
2929;DHT22;1474;51.460;7.150;2022-12-16T14:10:26;2.20;99.90
2929;DHT22;1474;51.460;7.150;2022-12-16T14:22:21;2.10;99.90
2929;DHT22;1474;51.460;7.150;2022-12-16T14:25:17;2.10;99.90
2929;DHT22;1474;51.460;7.150;2022-12-16T14:28:13;2.00;99.90
2929;DHT22;1474;51.460;7.150;2022-12-16T14:31:03;2.00;99.90
2929;DHT22;1474;51.460;7.150;2022-12-16T14:33:52;2.00;99.90
2929;DHT22;1474;51.460;7.150;2022-12-16T14:36:38;1.90;99.90
2929;DHT22;1474;51.460;7.150;2022-12-16T14:39:28;1.90;99.90
2929;DHT22;1474;51.460;7.150;2022-12-16T14:42:25;1.90;99.90
2929;DHT22;1474;51.460;7.150;2022-12-16T14:45:32;1.80;99.90
2929;DHT22;1474;51.460;7.150;2022-12-16T14:54:23;1.70;99.90
2929;DHT22;1474;51.460;7.150;2022-12-16T14:57:32;1.60;99.90
2929;DHT22;1474;51.460;7.150;2022-12-16T15:00:21;1.60;99.90
2929;DHT22;1474;51.460;7.150;2022-12-16T15:05:51;1.40;99.90
2929;DHT22;1474;51.460;7.150;2022-12-16T15:09:03;1.40;99.90
2929;DHT22;1474;51.460;7.150;2022-12-16T15:11:46;1.30;99.90
2929;DHT22;1474;51.460;7.150;2022-12-16T15:14:34;1.20;99.90
2929;DHT22;1474;51.460;7.150;2022-12-16T15:17:21;1.20;99.90
2929;DHT22;1474;51.460;7.150;2022-12-16T15:20:19;1.10;99.90
2929;DHT22;1474;51.460;7.150;2022-12-16T15:23:24;1.10;99.90
2929;DHT22;1474;51.460;7.150;2022-12-16T15:26:16;1.00;99.90
2929;DHT22;1474;51.460;7.150;2022-12-16T15:29:00;0.90;99.90
2929;DHT22;1474;51.460;7.150;2022-12-16T15:31:45;0.90;99.90
2929;DHT22;1474;51.460;7.150;2022-12-16T15:34:45;0.80;99.90
2929;DHT22;1474;51.460;7.150;2022-12-16T15:37:36;0.70;99.90
2929;DHT22;1474;51.460;7.150;2022-12-16T15:40:39;0.70;99.90
2929;DHT22;1474;51.460;7.150;2022-12-16T15:43:31;0.50;99.90
2929;DHT22;1474;51.460;7.150;2022-12-16T15:46:24;0.50;99.90
2929;DHT22;1474;51.460;7.150;2022-12-16T15:49:30;0.40;99.90
2929;DHT22;1474;51.460;7.150;2022-12-16T15:52:38;0.30;99.90
2929;DHT22;1474;51.460;7.150;2022-12-16T15:55:24;0.20;99.90
2929;DHT22;1474;51.460;7.150;2022-12-16T16:01:05;0.20;99.90
2929;DHT22;1474;51.460;7.150;2022-12-16T16:03:52;0.10;99.90
2929;DHT22;1474;51.460;7.150;2022-12-16T16:06:36;0.10;99.90
2929;DHT22;1474;51.460;7.150;2022-12-16T16:09:26;0.00;99.90
2929;DHT22;1474;51.460;7.150;2022-12-16T16:12:14;0.00;99.90
2929;DHT22;1474;51.460;7.150;2022-12-16T16:14:59;-0.10;99.90
2929;DHT22;1474;51.460;7.150;2022-12-16T16:17:44;-0.10;99.90
2929;DHT22;1474;51.460;7.150;2022-12-16T16:20:30;-0.20;99.90
2929;DHT22;1474;51.460;7.150;2022-12-16T16:23:17;-0.20;99.90
2929;DHT22;1474;51.460;7.150;2022-12-16T16:26:01;-0.20;99.90
2929;DHT22;1474;51.460;7.150;2022-12-16T16:28:46;-0.30;99.90
2929;DHT22;1474;51.460;7.150;2022-12-16T16:31:30;-0.30;99.90
2929;DHT22;1474;51.460;7.150;2022-12-16T16:34:14;-0.40;99.90
2929;DHT22;1474;51.460;7.150;2022-12-16T16:36:59;-0.50;99.90
2929;DHT22;1474;51.460;7.150;2022-12-16T16:39:44;-0.50;99.90
2929;DHT22;1474;51.460;7.150;2022-12-16T16:42:30;-0.60;99.90
2929;DHT22;1474;51.460;7.150;2022-12-16T16:45:14;-0.60;99.90
2929;DHT22;1474;51.460;7.150;2022-12-16T16:48:14;-0.60;99.90
2929;DHT22;1474;51.460;7.150;2022-12-16T16:50:59;-0.60;99.90
2929;DHT22;1474;51.460;7.150;2022-12-16T16:53:44;-0.60;99.90
2929;DHT22;1474;51.460;7.150;2022-12-16T16:56:31;-0.70;99.90
2929;DHT22;1474;51.460;7.150;2022-12-16T16:59:16;-0.70;99.90
2929;DHT22;1474;51.460;7.150;2022-12-16T17:02:00;-0.70;99.90
2929;DHT22;1474;51.460;7.150;2022-12-16T17:04:44;-0.70;99.90
2929;DHT22;1474;51.460;7.150;2022-12-16T17:07:28;-0.70;99.90
2929;DHT22;1474;51.460;7.150;2022-12-16T17:10:13;-0.60;99.90
2929;DHT22;1474;51.460;7.150;2022-12-16T17:12:57;-0.60;99.90
2929;DHT22;1474;51.460;7.150;2022-12-16T17:15:41;-0.60;99.90
2929;DHT22;1474;51.460;7.150;2022-12-16T17:18:25;-0.70;99.90
2929;DHT22;1474;51.460;7.150;2022-12-16T17:21:10;-0.70;99.90
2929;DHT22;1474;51.460;7.150;2022-12-16T17:23:54;-0.70;99.90
2929;DHT22;1474;51.460;7.150;2022-12-16T17:26:42;-0.70;99.90
2929;DHT22;1474;51.460;7.150;2022-12-16T17:29:27;-0.70;99.90
2929;DHT22;1474;51.460;7.150;2022-12-16T17:32:12;-0.70;99.90
2929;DHT22;1474;51.460;7.150;2022-12-16T17:34:56;-0.80;99.90
2929;DHT22;1474;51.460;7.150;2022-12-16T17:37:41;-0.70;99.90
2929;DHT22;1474;51.460;7.150;2022-12-16T17:40:25;-0.80;99.90
2929;DHT22;1474;51.460;7.150;2022-12-16T17:43:10;-0.80;99.90
2929;DHT22;1474;51.460;7.150;2022-12-16T17:46:02;-0.80;99.90
2929;DHT22;1474;51.460;7.150;2022-12-16T17:48:53;-0.90;99.90
2929;DHT22;1474;51.460;7.150;2022-12-16T17:51:38;-0.90;99.90
2929;DHT22;1474;51.460;7.150;2022-12-16T17:54:22;-0.90;99.90
2929;DHT22;1474;51.460;7.150;2022-12-16T17:57:06;-1.00;99.90
2929;DHT22;1474;51.460;7.150;2022-12-16T17:59:51;-1.00;99.90
2929;DHT22;1474;51.460;7.150;2022-12-16T18:02:35;-1.00;99.90
2929;DHT22;1474;51.460;7.150;2022-12-16T18:05:19;-1.00;99.90
2929;DHT22;1474;51.460;7.150;2022-12-16T18:08:04;-1.00;99.90
2929;DHT22;1474;51.460;7.150;2022-12-16T18:10:52;-1.00;99.90
2929;DHT22;1474;51.460;7.150;2022-12-16T18:13:37;-0.90;99.90
2929;DHT22;1474;51.460;7.150;2022-12-16T18:16:21;-0.90;99.90
2929;DHT22;1474;51.460;7.150;2022-12-16T18:19:05;-0.80;99.90
2929;DHT22;1474;51.460;7.150;2022-12-16T18:21:50;-0.80;99.90
2929;DHT22;1474;51.460;7.150;2022-12-16T18:24:34;-0.80;99.90
2929;DHT22;1474;51.460;7.150;2022-12-16T18:27:19;-0.80;99.90
2929;DHT22;1474;51.460;7.150;2022-12-16T18:30:04;-0.80;99.90
2929;DHT22;1474;51.460;7.150;2022-12-16T18:32:56;-0.80;99.90
2929;DHT22;1474;51.460;7.150;2022-12-16T18:35:40;-0.80;99.90
2929;DHT22;1474;51.460;7.150;2022-12-16T18:38:24;-0.80;99.90
2929;DHT22;1474;51.460;7.150;2022-12-16T18:41:17;-0.90;99.90
2929;DHT22;1474;51.460;7.150;2022-12-16T18:44:04;-0.90;99.90
2929;DHT22;1474;51.460;7.150;2022-12-16T18:46:48;-0.80;99.90
2929;DHT22;1474;51.460;7.150;2022-12-16T18:49:32;-0.80;99.90
2929;DHT22;1474;51.460;7.150;2022-12-16T18:52:17;-0.80;99.90
2929;DHT22;1474;51.460;7.150;2022-12-16T18:55:01;-0.70;99.90
2929;DHT22;1474;51.460;7.150;2022-12-16T18:57:46;-0.80;99.90
2929;DHT22;1474;51.460;7.150;2022-12-16T19:00:31;-0.80;99.90
2929;DHT22;1474;51.460;7.150;2022-12-16T19:03:15;-0.70;99.90
2929;DHT22;1474;51.460;7.150;2022-12-16T19:05:59;-0.70;99.90
2929;DHT22;1474;51.460;7.150;2022-12-16T19:08:44;-0.70;99.90
2929;DHT22;1474;51.460;7.150;2022-12-16T19:11:28;-0.70;99.90
2929;DHT22;1474;51.460;7.150;2022-12-16T19:14:13;-0.70;99.90
2929;DHT22;1474;51.460;7.150;2022-12-16T19:16:57;-0.70;99.90
2929;DHT22;1474;51.460;7.150;2022-12-16T19:19:41;-0.70;99.90
2929;DHT22;1474;51.460;7.150;2022-12-16T19:22:26;-0.70;99.90
2929;DHT22;1474;51.460;7.150;2022-12-16T19:25:10;-0.70;99.90
2929;DHT22;1474;51.460;7.150;2022-12-16T19:27:54;-0.70;99.90
2929;DHT22;1474;51.460;7.150;2022-12-16T19:30:39;-0.70;99.90
2929;DHT22;1474;51.460;7.150;2022-12-16T19:33:23;-0.80;99.90
2929;DHT22;1474;51.460;7.150;2022-12-16T19:36:07;-0.90;99.90
2929;DHT22;1474;51.460;7.150;2022-12-16T19:38:51;-0.90;99.90
2929;DHT22;1474;51.460;7.150;2022-12-16T19:41:36;-0.80;99.90
2929;DHT22;1474;51.460;7.150;2022-12-16T19:44:20;-0.80;99.90
2929;DHT22;1474;51.460;7.150;2022-12-16T19:47:04;-0.80;99.90
2929;DHT22;1474;51.460;7.150;2022-12-16T19:49:48;-0.80;99.90
2929;DHT22;1474;51.460;7.150;2022-12-16T19:52:32;-0.80;99.90